Time;durP1;ratioP1;P1;durP2;ratioP2;P2;SDS_P1;SDS_P2;PMS_P1;PMS_P2;Temp;Humidity;BMP_temperature;BMP_pressure;BME280_temperature;BME280_humidity;BME280_pressure;Samples;Min_cycle;Max_cycle;Signal;HPM_P1;HPM_P2
2023/04/21 00:02:21;;;;;;;510.20;222.13;;;;;;;;;;4963954;28;20124;-57
2023/04/21 00:04:48;;;;;;;535.08;213.50;;;;;;;;;;4963671;28;20146;-58
2023/04/21 00:07:14;;;;;;;525.47;213.43;;;;;;;;;;4963209;28;20123;-59
2023/04/21 00:09:40;;;;;;;523.80;205.55;;;;;;;;;;4964810;28;20072;-57
2023/04/21 00:12:05;;;;;;;496.08;196.80;;;;;;;;;;4964959;28;20497;-58
2023/04/21 00:14:30;;;;;;;533.20;211.10;;;;;;;;;;4964719;28;20019;-57
2023/04/21 00:16:56;;;;;;;530.45;206.98;;;;;;;;;;4964931;28;20745;-59
2023/04/21 00:19:22;;;;;;;531.67;221.73;;;;;;;;;;4964320;28;20114;-57
2023/04/21 00:21:48;;;;;;;492.02;210.73;;;;;;;;;;4963298;28;20038;-58
2023/04/21 00:24:13;;;;;;;524.03;220.48;;;;;;;;;;4962354;28;20030;-58
2023/04/21 00:26:38;;;;;;;542.92;222.40;;;;;;;;;;4962498;28;20035;-58
2023/04/21 00:29:03;;;;;;;547.00;215.45;;;;;;;;;;4964538;28;20026;-56
2023/04/21 00:31:28;;;;;;;469.95;209.57;;;;;;;;;;4963963;28;20711;-59
2023/04/21 00:33:54;;;;;;;634.67;227.57;;;;;;;;;;4963015;28;20019;-59
2023/04/21 00:36:20;;;;;;;560.42;234.68;;;;;;;;;;4963619;28;20265;-58
2023/04/21 00:38:45;;;;;;;491.02;196.88;;;;;;;;;;4963055;28;20030;-60
2023/04/21 00:41:10;;;;;;;492.83;209.70;;;;;;;;;;4963869;28;20408;-56
2023/04/21 00:43:35;;;;;;;586.13;226.00;;;;;;;;;;4963417;28;21252;-58
2023/04/21 00:46:01;;;;;;;545.10;214.45;;;;;;;;;;4964114;28;20034;-57
2023/04/21 00:48:26;;;;;;;540.38;220.77;;;;;;;;;;4963408;28;20035;-56
2023/04/21 00:50:51;;;;;;;484.10;208.27;;;;;;;;;;4964412;28;20047;-57
2023/04/21 00:53:16;;;;;;;511.77;221.60;;;;;;;;;;4963255;28;20775;-59
2023/04/21 00:55:42;;;;;;;537.45;216.38;;;;;;;;;;4962118;28;20856;-59
2023/04/21 00:58:07;;;;;;;538.00;227.98;;;;;;;;;;4963927;28;20019;-59
2023/04/21 01:00:32;;;;;;;535.50;222.10;;;;;;;;;;4962713;28;20431;-56
2023/04/21 01:02:59;;;;;;;554.13;237.45;;;;;;;;;;4961668;28;20719;-57
2023/04/21 01:05:24;;;;;;;543.33;223.88;;;;;;;;;;4962740;28;20026;-59
2023/04/21 01:07:49;;;;;;;520.92;231.77;;;;;;;;;;4964017;28;20033;-59
2023/04/21 01:10:14;;;;;;;501.65;213.77;;;;;;;;;;4962863;28;20022;-55
2023/04/21 01:12:44;;;;;;;533.95;223.23;;;;;;;;;;4962296;28;20027;-57
2023/04/21 01:15:10;;;;;;;557.70;236.95;;;;;;;;;;4962062;28;20030;-55
2023/04/21 01:17:37;;;;;;;527.10;223.05;;;;;;;;;;4963198;28;20046;-58
2023/04/21 01:20:07;;;;;;;510.83;215.80;;;;;;;;;;4963726;28;20133;-58
2023/04/21 01:22:34;;;;;;;543.60;232.27;;;;;;;;;;4961883;28;20108;-57
2023/04/21 01:24:59;;;;;;;526.45;230.32;;;;;;;;;;4962112;28;20035;-59
2023/04/21 01:27:25;;;;;;;556.20;238.45;;;;;;;;;;4963991;28;20037;-60
2023/04/21 01:29:51;;;;;;;541.00;219.00;;;;;;;;;;4963358;28;20026;-58
2023/04/21 01:32:20;;;;;;;521.97;220.82;;;;;;;;;;4961981;28;20058;-58
2023/04/21 01:34:46;;;;;;;523.22;229.95;;;;;;;;;;4963549;28;20027;-57
2023/04/21 01:37:12;;;;;;;506.92;236.50;;;;;;;;;;4963879;28;20108;-58
2023/04/21 01:39:38;;;;;;;560.75;237.65;;;;;;;;;;4964525;28;20102;-57
2023/04/21 01:42:04;;;;;;;575.50;245.15;;;;;;;;;;4962572;28;20465;-57
2023/04/21 01:44:29;;;;;;;533.13;229.45;;;;;;;;;;4961545;28;20425;-59
2023/04/21 01:46:55;;;;;;;489.40;219.00;;;;;;;;;;4963352;28;20598;-57
2023/04/21 01:49:20;;;;;;;488.48;218.43;;;;;;;;;;4963945;28;20015;-58
2023/04/21 01:51:45;;;;;;;526.00;231.57;;;;;;;;;;4961183;28;20557;-58
2023/04/21 01:54:10;;;;;;;522.50;234.07;;;;;;;;;;4962077;28;20127;-59
2023/04/21 01:56:36;;;;;;;513.17;230.40;;;;;;;;;;4962221;28;20100;-59
2023/04/21 01:59:01;;;;;;;532.00;228.05;;;;;;;;;;4962678;28;20697;-60
2023/04/21 02:01:26;;;;;;;521.33;232.85;;;;;;;;;;4961957;28;20095;-59
2023/04/21 02:03:51;;;;;;;557.13;224.35;;;;;;;;;;4962601;28;20111;-60
2023/04/21 02:06:17;;;;;;;507.92;233.63;;;;;;;;;;4963273;28;20058;-59
2023/04/21 02:08:42;;;;;;;514.65;225.95;;;;;;;;;;4962547;28;20031;-59
2023/04/21 02:11:07;;;;;;;527.85;232.50;;;;;;;;;;4962711;28;20042;-60
2023/04/21 02:13:32;;;;;;;575.75;250.20;;;;;;;;;;4962370;28;20036;-59
2023/04/21 02:15:58;;;;;;;517.43;235.13;;;;;;;;;;4962382;28;20039;-58
2023/04/21 02:18:23;;;;;;;502.15;233.60;;;;;;;;;;4962141;28;20247;-57
2023/04/21 02:20:48;;;;;;;545.25;234.25;;;;;;;;;;4961950;28;20035;-57
2023/04/21 02:23:13;;;;;;;540.05;256.35;;;;;;;;;;4963245;28;20022;-58
2023/04/21 02:25:39;;;;;;;547.47;251.18;;;;;;;;;;4960718;28;20039;-56
2023/04/21 02:28:04;;;;;;;566.92;247.63;;;;;;;;;;4964519;28;20031;-56
2023/04/21 02:30:29;;;;;;;505.85;222.43;;;;;;;;;;4963822;28;20489;-59
2023/04/21 02:32:55;;;;;;;515.33;237.57;;;;;;;;;;4967328;28;20073;-59
2023/04/21 02:35:20;;;;;;;521.17;236.48;;;;;;;;;;4964478;28;20033;-57
2023/04/21 02:37:45;;;;;;;500.58;222.27;;;;;;;;;;4965793;28;20030;-56
2023/04/21 02:40:11;;;;;;;515.87;222.53;;;;;;;;;;4965697;28;20106;-59
2023/04/21 02:42:36;;;;;;;506.45;235.02;;;;;;;;;;4966383;28;20274;-57
2023/04/21 02:45:01;;;;;;;507.85;222.80;;;;;;;;;;4964531;28;20550;-60
2023/04/21 02:47:27;;;;;;;518.45;227.98;;;;;;;;;;4963532;28;20038;-59
2023/04/21 02:49:52;;;;;;;482.85;223.95;;;;;;;;;;4966938;28;20038;-59
2023/04/21 02:52:17;;;;;;;509.50;230.52;;;;;;;;;;4965224;28;20057;-59
2023/04/21 02:54:42;;;;;;;819.03;251.05;;;;;;;;;;4962947;28;20026;-60
2023/04/21 02:57:08;;;;;;;565.50;247.37;;;;;;;;;;4963357;28;20080;-58
2023/04/21 02:59:33;;;;;;;563.53;265.27;;;;;;;;;;4966956;28;20250;-58
2023/04/21 03:01:58;;;;;;;517.50;248.25;;;;;;;;;;4965281;28;20265;-59
2023/04/21 03:04:24;;;;;;;529.15;240.50;;;;;;;;;;4964344;28;20037;-58
2023/04/21 03:06:50;;;;;;;555.60;247.43;;;;;;;;;;4964083;28;20038;-58
2023/04/21 03:09:15;;;;;;;532.22;247.82;;;;;;;;;;4966081;28;20022;-58
2023/04/21 03:11:41;;;;;;;531.20;237.07;;;;;;;;;;4964499;28;20118;-58
2023/04/21 03:14:06;;;;;;;553.65;246.93;;;;;;;;;;4963790;28;20323;-58
2023/04/21 03:16:31;;;;;;;535.38;244.95;;;;;;;;;;4966058;28;20102;-59
2023/04/21 03:18:56;;;;;;;549.33;254.70;;;;;;;;;;4965204;28;20412;-59
2023/04/21 03:21:22;;;;;;;531.40;259.98;;;;;;;;;;4966980;28;21149;-57
2023/04/21 03:23:47;;;;;;;663.05;250.57;;;;;;;;;;4964442;28;20579;-57
2023/04/21 03:26:12;;;;;;;551.33;244.57;;;;;;;;;;4965055;28;21335;-57
2023/04/21 03:28:37;;;;;;;576.72;242.90;;;;;;;;;;4964137;28;20026;-57
2023/04/21 03:31:02;;;;;;;549.70;249.82;;;;;;;;;;4965604;28;20084;-58
2023/04/21 03:33:28;;;;;;;590.65;234.20;;;;;;;;;;4963108;28;20118;-56
2023/04/21 03:35:53;;;;;;;563.50;254.68;;;;;;;;;;4963360;28;20054;-59
2023/04/21 03:38:18;;;;;;;558.00;254.88;;;;;;;;;;4966031;28;20061;-59
2023/04/21 03:40:43;;;;;;;565.45;250.50;;;;;;;;;;4964184;28;20063;-56
2023/04/21 03:43:09;;;;;;;555.13;252.32;;;;;;;;;;4965078;28;20038;-60
2023/04/21 03:45:34;;;;;;;566.13;258.45;;;;;;;;;;4963623;28;20080;-60
2023/04/21 03:48:00;;;;;;;561.88;254.00;;;;;;;;;;4965418;28;20084;-58
2023/04/21 03:50:25;;;;;;;565.90;266.10;;;;;;;;;;4964818;28;20044;-60
2023/04/21 03:52:50;;;;;;;568.45;270.83;;;;;;;;;;4964685;28;20285;-58
2023/04/21 03:55:15;;;;;;;620.97;278.75;;;;;;;;;;4962860;28;20125;-58
2023/04/21 03:57:41;;;;;;;570.17;249.30;;;;;;;;;;4964095;28;20094;-59
2023/04/21 04:00:08;;;;;;;529.25;237.75;;;;;;;;;;4963573;28;20037;-60
2023/04/21 04:02:34;;;;;;;572.03;248.32;;;;;;;;;;4964098;28;20197;-56
2023/04/21 04:04:59;;;;;;;567.95;244.25;;;;;;;;;;4963627;28;20076;-56
2023/04/21 04:07:25;;;;;;;562.23;235.87;;;;;;;;;;4963598;28;20452;-57
2023/04/21 04:09:50;;;;;;;528.42;226.55;;;;;;;;;;4964967;28;21059;-58
2023/04/21 04:12:15;;;;;;;540.10;233.55;;;;;;;;;;4963983;28;20026;-57
2023/04/21 04:14:40;;;;;;;537.05;232.02;;;;;;;;;;4962696;28;20034;-57
2023/04/21 04:17:06;;;;;;;568.67;243.73;;;;;;;;;;4962927;28;20039;-57
2023/04/21 04:19:31;;;;;;;531.78;242.18;;;;;;;;;;4964492;28;20252;-58
2023/04/21 04:21:57;;;;;;;543.30;248.85;;;;;;;;;;4964224;28;20874;-60
2023/04/21 04:24:23;;;;;;;546.83;241.27;;;;;;;;;;4963393;28;20093;-59
2023/04/21 04:26:48;;;;;;;552.83;244.57;;;;;;;;;;4963974;28;20138;-57
2023/04/21 04:29:15;;;;;;;534.03;241.38;;;;;;;;;;4964098;28;20068;-59
2023/04/21 04:31:40;;;;;;;589.28;245.43;;;;;;;;;;4964060;28;20050;-57
2023/04/21 04:34:05;;;;;;;582.70;255.45;;;;;;;;;;4962586;28;20038;-59
2023/04/21 04:36:31;;;;;;;578.20;249.02;;;;;;;;;;4961868;28;20626;-60
2023/04/21 04:38:57;;;;;;;549.38;250.02;;;;;;;;;;4965385;28;20038;-60
2023/04/21 04:41:23;;;;;;;572.13;237.50;;;;;;;;;;4961615;28;20587;-59
2023/04/21 04:43:48;;;;;;;699.63;264.67;;;;;;;;;;4960375;28;20029;-57
2023/04/21 04:46:13;;;;;;;554.78;237.95;;;;;;;;;;4963370;28;20042;-59
2023/04/21 04:48:38;;;;;;;585.25;250.00;;;;;;;;;;4962751;28;20019;-59
2023/04/21 04:51:04;;;;;;;559.15;248.77;;;;;;;;;;4961743;28;20045;-60
2023/04/21 04:53:30;;;;;;;588.58;247.48;;;;;;;;;;4964642;28;20100;-59
2023/04/21 04:55:57;;;;;;;575.22;254.07;;;;;;;;;;4963350;28;20545;-59
2023/04/21 04:58:22;;;;;;;505.08;218.52;;;;;;;;;;4964182;28;20049;-60
2023/04/21 05:00:47;;;;;;;567.67;238.15;;;;;;;;;;4963104;28;20038;-60
2023/04/21 05:03:13;;;;;;;561.47;246.13;;;;;;;;;;4964153;28;20019;-59
2023/04/21 05:05:38;;;;;;;536.63;244.30;;;;;;;;;;4961415;28;20046;-59
2023/04/21 05:08:03;;;;;;;538.38;239.02;;;;;;;;;;4964157;28;20034;-60
2023/04/21 05:10:29;;;;;;;545.38;243.60;;;;;;;;;;4963301;28;20046;-60
2023/04/21 05:12:54;;;;;;;565.10;248.82;;;;;;;;;;4964772;28;20018;-60
2023/04/21 05:15:21;;;;;;;567.30;238.57;;;;;;;;;;4963013;28;20030;-59
2023/04/21 05:17:46;;;;;;;516.50;231.13;;;;;;;;;;4962035;28;20019;-59
2023/04/21 05:20:12;;;;;;;572.35;237.80;;;;;;;;;;4962012;28;20026;-59
2023/04/21 05:22:37;;;;;;;518.33;218.38;;;;;;;;;;4965188;28;20022;-58
2023/04/21 05:25:03;;;;;;;539.22;230.02;;;;;;;;;;4962561;28;20148;-58
2023/04/21 05:27:28;;;;;;;544.75;231.00;;;;;;;;;;4961950;28;20042;-58
2023/04/21 05:29:54;;;;;;;557.70;240.88;;;;;;;;;;4963136;28;20030;-57
2023/04/21 05:32:19;;;;;;;541.85;240.77;;;;;;;;;;4961648;28;20094;-55
2023/04/21 05:34:44;;;;;;;563.78;239.05;;;;;;;;;;4962943;28;20065;-57
2023/04/21 05:37:11;;;;;;;546.33;233.68;;;;;;;;;;4962904;28;20512;-57
2023/04/21 05:39:36;;;;;;;582.38;245.82;;;;;;;;;;4963779;28;20065;-56
2023/04/21 05:42:01;;;;;;;594.87;240.20;;;;;;;;;;4962636;28;20193;-54
2023/04/21 05:44:26;;;;;;;582.58;239.38;;;;;;;;;;4963063;28;20389;-57
2023/04/21 05:46:52;;;;;;;608.90;236.43;;;;;;;;;;4961741;28;20149;-56
2023/04/21 05:49:17;;;;;;;576.80;236.82;;;;;;;;;;4964500;28;20277;-58
2023/04/21 05:51:42;;;;;;;653.83;253.65;;;;;;;;;;4963594;28;20518;-60
2023/04/21 05:54:07;;;;;;;639.80;245.45;;;;;;;;;;4964290;28;20121;-60
2023/04/21 05:56:33;;;;;;;630.87;239.67;;;;;;;;;;4962119;28;20142;-61
2023/04/21 05:58:58;;;;;;;654.97;244.43;;;;;;;;;;4964771;28;20357;-60
2023/04/21 06:01:23;;;;;;;692.40;247.87;;;;;;;;;;4963381;28;21098;-57
2023/04/21 06:03:48;;;;;;;772.67;254.93;;;;;;;;;;4964219;28;20551;-57
2023/04/21 06:06:14;;;;;;;707.10;241.38;;;;;;;;;;4966479;28;20386;-59
2023/04/21 06:08:39;;;;;;;680.80;239.63;;;;;;;;;;4967223;28;20034;-58
2023/04/21 06:11:04;;;;;;;680.95;250.63;;;;;;;;;;4966371;28;20106;-59
2023/04/21 06:13:30;;;;;;;787.23;265.80;;;;;;;;;;4966476;28;20045;-59
2023/04/21 06:15:55;;;;;;;630.93;238.83;;;;;;;;;;4965448;28;20267;-58
2023/04/21 06:18:20;;;;;;;683.03;247.80;;;;;;;;;;4966511;28;20257;-60
2023/04/21 06:20:49;;;;;;;699.90;239.57;;;;;;;;;;4966561;28;20047;-58
2023/04/21 06:23:14;;;;;;;675.17;241.05;;;;;;;;;;4968400;28;20406;-57
2023/04/21 06:25:39;;;;;;;700.33;247.67;;;;;;;;;;4962902;28;20035;-57
2023/04/21 06:28:05;;;;;;;669.77;253.40;;;;;;;;;;4966457;28;20034;-58
2023/04/21 06:30:30;;;;;;;681.33;259.50;;;;;;;;;;4965137;28;20328;-59
2023/04/21 06:32:55;;;;;;;671.83;248.70;;;;;;;;;;4966165;28;20323;-58
2023/04/21 06:35:20;;;;;;;668.43;256.70;;;;;;;;;;4963732;28;20258;-57
2023/04/21 06:37:46;;;;;;;643.08;244.73;;;;;;;;;;4964990;28;20266;-58
2023/04/21 06:40:13;;;;;;;652.40;250.70;;;;;;;;;;4964672;28;20038;-59
2023/04/21 06:42:38;;;;;;;632.55;246.63;;;;;;;;;;4966392;28;20064;-59
2023/04/21 06:45:04;;;;;;;647.97;249.90;;;;;;;;;;4964459;28;20035;-59
2023/04/21 06:47:29;;;;;;;644.35;255.10;;;;;;;;;;4965354;28;20042;-59
2023/04/21 06:49:54;;;;;;;629.85;241.27;;;;;;;;;;4964787;28;20492;-58
2023/04/21 06:52:19;;;;;;;678.97;245.43;;;;;;;;;;4964916;28;20454;-57
2023/04/21 06:54:45;;;;;;;653.55;254.32;;;;;;;;;;4964298;28;20654;-60
2023/04/21 06:57:10;;;;;;;642.57;241.43;;;;;;;;;;4965220;28;20062;-60
2023/04/21 06:59:35;;;;;;;702.10;248.23;;;;;;;;;;4965154;28;20362;-60
2023/04/21 07:02:00;;;;;;;661.72;250.18;;;;;;;;;;4966555;28;20291;-58
2023/04/21 07:04:28;;;;;;;697.42;259.48;;;;;;;;;;4964104;28;20026;-59
2023/04/21 07:06:54;;;;;;;707.47;250.38;;;;;;;;;;4962940;28;20034;-59
2023/04/21 07:09:20;;;;;;;730.03;259.95;;;;;;;;;;4965225;28;20418;-58
2023/04/21 07:11:45;;;;;;;719.85;244.68;;;;;;;;;;4965092;28;20042;-60
2023/04/21 07:14:10;;;;;;;710.33;257.20;;;;;;;;;;4963765;28;20045;-56
2023/04/21 07:16:35;;;;;;;719.73;254.57;;;;;;;;;;4965257;28;20042;-56
2023/04/21 07:19:01;;;;;;;666.90;230.30;;;;;;;;;;4967679;28;20269;-57
2023/04/21 07:21:26;;;;;;;664.60;227.48;;;;;;;;;;4963951;28;20285;-59
2023/04/21 07:23:51;;;;;;;768.27;228.03;;;;;;;;;;4963325;28;20101;-58
2023/04/21 07:26:17;;;;;;;666.40;229.33;;;;;;;;;;4964963;28;20904;-58
2023/04/21 07:28:42;;;;;;;667.33;231.27;;;;;;;;;;4974048;28;20365;-57
2023/04/21 07:31:07;;;;;;;746.47;236.23;;;;;;;;;;4965958;28;20023;-59
2023/04/21 07:33:32;;;;;;;691.83;226.10;;;;;;;;;;4964964;28;20032;-60
2023/04/21 07:35:58;;;;;;;658.57;228.77;;;;;;;;;;4963742;28;20096;-57
2023/04/21 07:38:23;;;;;;;714.42;235.93;;;;;;;;;;4964420;28;20037;-58
2023/04/21 07:40:49;;;;;;;627.72;215.73;;;;;;;;;;4963783;28;20034;-59
2023/04/21 07:43:14;;;;;;;651.45;222.98;;;;;;;;;;4965353;28;20030;-58
2023/04/21 07:45:39;;;;;;;661.37;222.87;;;;;;;;;;4963319;28;20531;-60
2023/04/21 07:48:05;;;;;;;688.10;233.88;;;;;;;;;;4965553;28;20267;-59
2023/04/21 07:50:30;;;;;;;658.40;222.70;;;;;;;;;;4966133;28;20030;-60
2023/04/21 07:52:56;;;;;;;704.22;238.40;;;;;;;;;;4966019;28;20033;-58
2023/04/21 07:55:21;;;;;;;674.97;229.10;;;;;;;;;;4964813;28;20127;-59
2023/04/21 07:57:46;;;;;;;756.93;239.13;;;;;;;;;;4963693;28;20185;-61
2023/04/21 08:00:12;;;;;;;692.43;239.03;;;;;;;;;;4963757;28;20260;-58
2023/04/21 08:02:37;;;;;;;679.63;229.98;;;;;;;;;;4962851;28;20288;-59
2023/04/21 08:05:03;;;;;;;723.83;233.13;;;;;;;;;;4961110;28;20030;-60
2023/04/21 08:07:28;;;;;;;668.67;234.70;;;;;;;;;;4961738;28;20035;-59
2023/04/21 08:09:53;;;;;;;689.77;227.70;;;;;;;;;;4965756;28;20261;-59
2023/04/21 08:12:18;;;;;;;698.08;234.48;;;;;;;;;;4965726;28;20365;-58
2023/04/21 08:14:44;;;;;;;725.67;238.30;;;;;;;;;;4963385;28;20460;-57
2023/04/21 08:17:10;;;;;;;750.57;245.57;;;;;;;;;;4963246;28;20142;-59
2023/04/21 08:19:35;;;;;;;708.38;238.43;;;;;;;;;;4963833;28;20790;-58
2023/04/21 08:22:00;;;;;;;696.77;241.50;;;;;;;;;;4963692;28;20035;-56
2023/04/21 08:24:25;;;;;;;726.13;241.65;;;;;;;;;;4962449;28;21013;-57
2023/04/21 08:26:50;;;;;;;680.57;227.97;;;;;;;;;;4966159;28;20049;-57
2023/04/21 08:29:16;;;;;;;678.13;227.97;;;;;;;;;;4965465;28;20433;-57
2023/04/21 08:31:41;;;;;;;694.10;229.93;;;;;;;;;;4964935;28;20360;-59
2023/04/21 08:34:07;;;;;;;685.38;229.07;;;;;;;;;;4964330;28;20490;-60
2023/04/21 08:36:32;;;;;;;672.65;232.10;;;;;;;;;;4963832;28;20052;-59
2023/04/21 08:38:57;;;;;;;649.75;219.68;;;;;;;;;;4964522;28;20502;-57
2023/04/21 08:41:23;;;;;;;684.25;229.98;;;;;;;;;;4963178;28;20099;-57
2023/04/21 08:43:48;;;;;;;715.78;216.23;;;;;;;;;;4965190;28;20128;-57
2023/04/21 08:46:14;;;;;;;680.27;224.07;;;;;;;;;;4963186;28;20742;-59
2023/04/21 08:48:40;;;;;;;628.15;222.13;;;;;;;;;;4983386;28;20045;-57
2023/04/21 08:51:08;;;;;;;691.55;237.23;;;;;;;;;;4982497;28;20034;-58
2023/04/21 08:53:35;;;;;;;731.03;235.48;;;;;;;;;;4984283;28;20014;-56
2023/04/21 08:56:02;;;;;;;734.50;235.85;;;;;;;;;;4981156;28;20077;-59
2023/04/21 08:58:27;;;;;;;682.78;224.75;;;;;;;;;;4983349;28;20057;-61
2023/04/21 09:00:52;;;;;;;698.08;236.45;;;;;;;;;;4983624;28;20522;-59
2023/04/21 09:03:24;;;;;;;787.53;249.63;;;;;;;;;;4983310;28;20025;-56
2023/04/21 09:05:49;;;;;;;;;;;;;;;;;;4982456;28;20293;-60
2023/04/21 09:08:15;;;;;;;742.33;236.80;;;;;;;;;;4983262;28;19910;-59
2023/04/21 09:10:48;;;;;;;630.05;210.02;;;;;;;;;;4982743;28;20099;-58
2023/04/21 09:13:13;;;;;;;665.97;219.55;;;;;;;;;;4983307;28;20034;-59
2023/04/21 09:15:39;;;;;;;693.78;222.45;;;;;;;;;;4980030;28;20025;-59
2023/04/21 09:18:09;;;;;;;660.60;206.75;;;;;;;;;;4983684;28;20087;-59
2023/04/21 09:20:35;;;;;;;664.17;213.65;;;;;;;;;;4981282;28;20475;-57
2023/04/21 09:23:03;;;;;;;648.27;217.03;;;;;;;;;;4982384;28;20022;-57
2023/04/21 09:25:30;;;;;;;706.65;230.50;;;;;;;;;;4981548;28;20278;-59
2023/04/21 09:27:56;;;;;;;737.53;236.48;;;;;;;;;;4974569;28;20856;-59
2023/04/21 09:30:21;;;;;;;685.75;216.98;;;;;;;;;;4980080;28;20530;-58
2023/04/21 09:32:47;;;;;;;693.47;226.77;;;;;;;;;;4983106;28;20153;-59
2023/04/21 09:35:12;;;;;;;614.35;203.40;;;;;;;;;;4979594;28;20026;-58
2023/04/21 09:37:38;;;;;;;717.20;230.50;;;;;;;;;;4984522;28;20095;-57
2023/04/21 09:40:03;;;;;;;723.88;222.18;;;;;;;;;;4987377;28;20341;-59
2023/04/21 09:42:29;;;;;;;651.38;216.02;;;;;;;;;;4987305;28;20026;-61
2023/04/21 09:44:55;;;;;;;651.45;215.40;;;;;;;;;;4985985;28;20981;-57
2023/04/21 09:47:21;;;;;;;662.17;220.23;;;;;;;;;;4984523;28;20027;-59
2023/04/21 09:49:50;;;;;;;659.38;224.68;;;;;;;;;;4987673;28;20105;-60
2023/04/21 09:52:16;;;;;;;700.63;231.98;;;;;;;;;;4984881;28;20236;-57
2023/04/21 09:54:47;;;;;;;658.92;214.95;;;;;;;;;;4985249;28;20034;-57
2023/04/21 09:57:15;;;;;;;644.00;210.65;;;;;;;;;;4985604;28;20112;-57
2023/04/21 09:59:43;;;;;;;593.35;192.05;;;;;;;;;;4988105;28;20367;-57
2023/04/21 10:02:10;;;;;;;583.83;188.88;;;;;;;;;;4985623;28;20034;-59
2023/04/21 10:04:36;;;;;;;674.80;205.13;;;;;;;;;;4986600;28;20022;-59
2023/04/21 10:07:02;;;;;;;659.67;208.35;;;;;;;;;;4987023;28;20102;-58
2023/04/21 10:09:32;;;;;;;637.75;210.20;;;;;;;;;;4984693;28;20034;-60
2023/04/21 10:11:59;;;;;;;670.42;226.32;;;;;;;;;;4985347;28;20034;-59
2023/04/21 10:14:24;;;;;;;662.10;218.75;;;;;;;;;;4983077;28;20109;-58
2023/04/21 10:16:56;;;;;;;621.20;190.15;;;;;;;;;;4984073;28;20030;-58
2023/04/21 10:19:23;;;;;;;593.58;191.43;;;;;;;;;;4985842;28;20022;-57
2023/04/21 10:21:49;;;;;;;680.95;218.93;;;;;;;;;;4985668;28;20111;-59
2023/04/21 10:24:14;;;;;;;629.35;204.85;;;;;;;;;;4983995;28;20930;-59
2023/04/21 10:26:39;;;;;;;628.53;216.13;;;;;;;;;;4984736;28;20042;-58
2023/04/21 10:29:05;;;;;;;641.90;200.50;;;;;;;;;;4985236;28;20766;-58
2023/04/21 10:31:43;;;;;;;561.60;187.88;;;;;;;;;;4984027;28;20268;-60
2023/04/21 10:34:08;;;;;;;694.20;205.57;;;;;;;;;;4983781;28;20123;-56
2023/04/21 10:36:33;;;;;;;641.40;210.15;;;;;;;;;;4983509;28;20037;-57
2023/04/21 10:39:02;;;;;;;677.20;224.40;;;;;;;;;;4984731;28;20095;-58
2023/04/21 10:41:32;;;;;;;706.10;229.10;;;;;;;;;;4984443;28;20138;-57
2023/04/21 10:43:58;;;;;;;667.03;214.23;;;;;;;;;;4985410;28;20597;-57
2023/04/21 10:46:42;;;;;;;670.53;220.75;;;;;;;;;;4984185;28;20039;-57
2023/04/21 10:49:08;;;;;;;720.20;239.80;;;;;;;;;;4983911;28;20114;-60
2023/04/21 10:51:53;;;;;;;749.78;240.57;;;;;;;;;;4983373;28;20037;-57
2023/04/21 10:54:21;;;;;;;711.58;242.13;;;;;;;;;;4983502;28;20026;-59
2023/04/21 10:56:47;;;;;;;702.00;230.90;;;;;;;;;;4986492;28;20299;-58
2023/04/21 10:59:13;;;;;;;675.33;229.80;;;;;;;;;;4985823;28;20022;-57
2023/04/21 11:01:39;;;;;;;726.85;236.55;;;;;;;;;;4984981;28;20652;-59
2023/04/21 11:04:04;;;;;;;666.65;215.82;;;;;;;;;;4983708;28;20022;-57
2023/04/21 11:06:31;;;;;;;652.53;223.52;;;;;;;;;;4984561;28;20038;-58
2023/04/21 11:08:57;;;;;;;743.72;234.35;;;;;;;;;;4984373;28;20065;-57
2023/04/21 11:11:23;;;;;;;653.28;216.07;;;;;;;;;;4982631;28;20149;-58
2023/04/21 11:13:48;;;;;;;744.50;214.18;;;;;;;;;;4982284;28;20018;-57
2023/04/21 11:16:13;;;;;;;662.30;219.30;;;;;;;;;;4983976;28;20030;-58
2023/04/21 11:18:40;;;;;;;627.90;207.13;;;;;;;;;;4985747;28;20265;-57
2023/04/21 11:21:09;;;;;;;725.35;230.43;;;;;;;;;;4986525;28;20149;-58
2023/04/21 11:23:35;;;;;;;715.97;226.35;;;;;;;;;;4984954;28;20033;-60
2023/04/21 11:26:00;;;;;;;678.15;230.95;;;;;;;;;;4984934;28;20041;-59
2023/04/21 11:28:25;;;;;;;724.83;240.70;;;;;;;;;;4984181;28;20030;-58
2023/04/21 11:30:50;;;;;;;727.57;243.77;;;;;;;;;;4984636;28;20087;-56
2023/04/21 11:33:16;;;;;;;728.90;244.85;;;;;;;;;;4985493;28;21020;-57
2023/04/21 11:35:42;;;;;;;674.42;226.25;;;;;;;;;;4982919;28;20031;-57
2023/04/21 11:38:07;;;;;;;625.85;208.68;;;;;;;;;;4983034;28;20022;-57
2023/04/21 11:40:45;;;;;;;648.73;225.83;;;;;;;;;;4985846;28;20033;-57
2023/04/21 11:43:10;;;;;;;695.58;242.50;;;;;;;;;;4984897;28;20269;-57
2023/04/21 11:45:36;;;;;;;707.20;232.97;;;;;;;;;;4980907;28;20057;-59
2023/04/21 11:48:18;;;;;;;622.00;214.13;;;;;;;;;;4984704;28;20256;-57
2023/04/21 11:50:49;;;;;;;669.58;233.02;;;;;;;;;;4982979;28;20121;-57
2023/04/21 11:53:15;;;;;;;625.97;209.67;;;;;;;;;;4983020;28;20068;-60
2023/04/21 11:55:44;;;;;;;675.40;234.80;;;;;;;;;;4982641;28;20122;-58
2023/04/21 11:58:11;;;;;;;686.05;251.82;;;;;;;;;;4983935;28;20064;-57
2023/04/21 12:00:36;;;;;;;716.25;249.90;;;;;;;;;;4984374;28;20066;-59
2023/04/21 12:03:01;;;;;;;686.35;236.35;;;;;;;;;;4985653;28;20125;-57
2023/04/21 12:05:33;;;;;;;640.63;224.33;;;;;;;;;;4982752;28;20081;-58
2023/04/21 12:07:58;;;;;;;689.88;237.88;;;;;;;;;;4984247;28;20284;-57
2023/04/21 12:10:24;;;;;;;686.85;237.15;;;;;;;;;;4983894;28;21731;-57
2023/04/21 12:12:50;;;;;;;590.03;207.23;;;;;;;;;;4987821;28;20069;-57
2023/04/21 12:15:21;;;;;;;677.35;225.77;;;;;;;;;;4981707;28;20025;-59
2023/04/21 12:17:48;;;;;;;604.95;199.73;;;;;;;;;;4985070;28;20030;-61
2023/04/21 12:20:22;;;;;;;632.78;213.45;;;;;;;;;;4984490;28;20470;-58
2023/04/21 12:22:47;;;;;;;589.42;209.32;;;;;;;;;;4983763;28;20148;-60
2023/04/21 12:25:13;;;;;;;631.72;214.77;;;;;;;;;;4983981;28;20033;-60
2023/04/21 12:27:48;;;;;;;712.40;232.25;;;;;;;;;;4983610;28;20033;-56
2023/04/21 12:30:13;;;;;;;653.45;232.85;;;;;;;;;;4982035;28;20481;-59
2023/04/21 12:32:38;;;;;;;681.03;222.25;;;;;;;;;;4982643;28;20494;-60
2023/04/21 12:35:04;;;;;;;637.85;229.75;;;;;;;;;;4984720;28;20022;-57
2023/04/21 12:37:29;;;;;;;655.95;232.77;;;;;;;;;;4983906;28;20034;-59
2023/04/21 12:39:54;;;;;;;655.03;220.82;;;;;;;;;;4983646;28;20562;-59
2023/04/21 12:42:20;;;;;;;634.40;215.77;;;;;;;;;;4984455;28;20141;-58
2023/04/21 12:44:45;;;;;;;618.07;211.07;;;;;;;;;;4981727;28;20078;-59
2023/04/21 12:47:10;;;;;;;688.63;226.98;;;;;;;;;;4984442;28;20714;-58
2023/04/21 12:49:36;;;;;;;685.00;236.95;;;;;;;;;;4984559;28;20018;-60
2023/04/21 12:52:04;;;;;;;648.72;227.75;;;;;;;;;;4983120;28;20608;-57
2023/04/21 12:54:29;;;;;;;683.50;250.20;;;;;;;;;;4982702;28;20848;-57
2023/04/21 12:56:55;;;;;;;656.78;228.43;;;;;;;;;;4983021;28;20091;-58
2023/04/21 12:59:20;;;;;;;691.85;236.38;;;;;;;;;;4984133;28;20041;-58
2023/04/21 13:01:45;;;;;;;637.28;225.60;;;;;;;;;;4954304;28;20527;-58
2023/04/21 13:04:10;;;;;;;651.83;230.57;;;;;;;;;;4982334;28;20030;-56
2023/04/21 13:06:37;;;;;;;702.80;245.20;;;;;;;;;;4983849;28;20076;-60
2023/04/21 13:09:03;;;;;;;626.50;225.73;;;;;;;;;;4983530;28;20188;-58
2023/04/21 13:11:28;;;;;;;621.53;217.98;;;;;;;;;;4983003;28;20157;-59
2023/04/21 13:13:53;;;;;;;768.00;237.27;;;;;;;;;;4980587;28;20029;-57
2023/04/21 13:16:19;;;;;;;625.63;237.07;;;;;;;;;;4983613;28;20296;-59
2023/04/21 13:18:45;;;;;;;674.15;225.50;;;;;;;;;;4984259;28;20291;-57
2023/04/21 13:21:10;;;;;;;642.80;226.43;;;;;;;;;;4982904;28;20511;-59
2023/04/21 13:23:35;;;;;;;730.73;235.50;;;;;;;;;;4982123;28;20467;-59
2023/04/21 13:26:00;;;;;;;656.53;220.95;;;;;;;;;;4982778;28;20273;-57
2023/04/21 13:28:26;;;;;;;616.35;214.18;;;;;;;;;;4983949;28;20109;-57
2023/04/21 13:30:51;;;;;;;665.67;231.10;;;;;;;;;;4982940;28;20106;-57
2023/04/21 13:33:17;;;;;;;646.15;225.73;;;;;;;;;;4983654;28;20029;-58
2023/04/21 13:35:42;;;;;;;643.40;222.07;;;;;;;;;;4980858;28;20046;-59
2023/04/21 13:38:08;;;;;;;660.97;217.33;;;;;;;;;;4984184;28;20030;-58
2023/04/21 13:40:33;;;;;;;721.22;243.50;;;;;;;;;;4984314;28;20265;-58
2023/04/21 13:42:58;;;;;;;636.67;227.50;;;;;;;;;;4983678;28;20025;-60
2023/04/21 13:45:24;;;;;;;694.10;221.32;;;;;;;;;;4982533;28;20943;-57
2023/04/21 13:47:50;;;;;;;609.70;219.18;;;;;;;;;;4983032;28;20027;-58